sensor_id;sensor_type;location;lat;lon;timestamp;temperature;humidity
55673;DHT22;41554;45.366;20.400;2022-07-29T02:07:33;640.30;2432.00
55673;DHT22;41554;45.366;20.400;2022-07-29T02:10:00;640.20;2432.00
55673;DHT22;41554;45.366;20.400;2022-07-29T02:12:28;640.20;2432.00
55673;DHT22;41554;45.366;20.400;2022-07-29T02:14:56;640.10;2432.00
55673;DHT22;41554;45.366;20.400;2022-07-29T02:18:05;640.00;2432.00
55673;DHT22;41554;45.366;20.400;2022-07-29T08:18:14;717.70;2201.60
55673;DHT22;41554;45.366;20.400;2022-07-29T08:20:40;717.60;2201.60
55673;DHT22;41554;45.366;20.400;2022-07-29T08:23:07;717.60;2201.60
55673;DHT22;41554;45.366;20.400;2022-07-29T08:25:37;717.70;2176.00
55673;DHT22;41554;45.366;20.400;2022-07-29T08:28:04;717.70;2176.00
55673;DHT22;41554;45.366;20.400;2022-07-29T08:30:30;717.70;2176.00
55673;DHT22;41554;45.366;20.400;2022-07-29T08:32:57;742.40;2201.60
55673;DHT22;41554;45.366;20.400;2022-07-29T08:35:24;742.60;2201.60
55673;DHT22;41554;45.366;20.400;2022-07-29T08:37:51;742.60;2227.20
55673;DHT22;41554;45.366;20.400;2022-07-29T08:40:17;742.50;2227.20
55673;DHT22;41554;45.366;20.400;2022-07-29T08:42:43;742.80;2201.60
55673;DHT22;41554;45.366;20.400;2022-07-29T08:55:03;742.70;2201.60
55673;DHT22;41554;45.366;20.400;2022-07-29T08:57:29;742.40;2227.20
55673;DHT22;41554;45.366;20.400;2022-07-29T08:59:57;742.40;2252.80
55673;DHT22;41554;45.366;20.400;2022-07-29T09:02:28;742.50;2252.80
55673;DHT22;41554;45.366;20.400;2022-07-29T09:04:57;742.50;2201.60
55673;DHT22;41554;45.366;20.400;2022-07-29T09:07:25;742.40;2227.20
55673;DHT22;41554;45.366;20.400;2022-07-29T09:09:50;742.40;2201.60
55673;DHT22;41554;45.366;20.400;2022-07-29T09:12:16;742.50;2176.00
55673;DHT22;41554;45.366;20.400;2022-07-29T09:14:42;742.50;2201.60
55673;DHT22;41554;45.366;20.400;2022-07-29T09:17:08;742.50;2227.20
55673;DHT22;41554;45.366;20.400;2022-07-29T09:19:36;742.60;2227.20
55673;DHT22;41554;45.366;20.400;2022-07-29T09:22:05;742.60;2201.60
55673;DHT22;41554;45.366;20.400;2022-07-29T09:24:38;742.90;2201.60
55673;DHT22;41554;45.366;20.400;2022-07-29T09:34:32;743.10;2124.80
55673;DHT22;41554;45.366;20.400;2022-07-29T09:36:58;743.20;2099.20
55673;DHT22;41554;45.366;20.400;2022-07-29T09:39:35;743.20;2073.60
55673;DHT22;41554;45.366;20.400;2022-07-29T09:42:06;743.20;2073.60
55673;DHT22;41554;45.366;20.400;2022-07-29T09:44:49;743.20;2073.60
55673;DHT22;41554;45.366;20.400;2022-07-29T09:47:17;743.30;2073.60
55673;DHT22;41554;45.366;20.400;2022-07-29T09:49:57;743.30;2073.60
55673;DHT22;41554;45.366;20.400;2022-07-29T09:52:27;743.30;2073.60
55673;DHT22;41554;45.366;20.400;2022-07-29T09:54:53;743.30;2073.60
55673;DHT22;41554;45.366;20.400;2022-07-29T11:26:16;819.50;1868.80
55673;DHT22;41554;45.366;20.400;2022-07-29T11:29:14;819.50;1843.20
55673;DHT22;41554;45.366;20.400;2022-07-29T11:31:44;819.50;1817.60
55673;DHT22;41554;45.366;20.400;2022-07-29T11:34:26;819.50;1817.60
55673;DHT22;41554;45.366;20.400;2022-07-29T11:47:32;819.30;1792.00
55673;DHT22;41554;45.366;20.400;2022-07-29T11:50:01;819.30;1792.00
55673;DHT22;41554;45.366;20.400;2022-07-29T11:52:40;819.30;1792.00
55673;DHT22;41554;45.366;20.400;2022-07-29T11:55:13;819.40;1817.60
55673;DHT22;41554;45.366;20.400;2022-07-29T11:57:50;819.60;1817.60
55673;DHT22;41554;45.366;20.400;2022-07-29T12:03:08;819.30;1843.20
55673;DHT22;41554;45.366;20.400;2022-07-29T12:05:37;819.30;1817.60
55673;DHT22;41554;45.366;20.400;2022-07-29T12:10:32;819.40;1843.20
55673;DHT22;41554;45.366;20.400;2022-07-29T12:12:58;819.60;1817.60
55673;DHT22;41554;45.366;20.400;2022-07-29T12:15:24;819.70;1792.00
55673;DHT22;41554;45.366;20.400;2022-07-29T12:17:51;819.70;1792.00
55673;DHT22;41554;45.366;20.400;2022-07-29T12:20:25;819.70;1792.00
55673;DHT22;41554;45.366;20.400;2022-07-29T12:22:52;819.50;1817.60
55673;DHT22;41554;45.366;20.400;2022-07-29T12:25:20;819.50;1817.60
55673;DHT22;41554;45.366;20.400;2022-07-29T12:27:45;819.50;1792.00
55673;DHT22;41554;45.366;20.400;2022-07-29T12:30:14;819.70;1817.60
55673;DHT22;41554;45.366;20.400;2022-07-29T12:35:10;819.90;1792.00
55673;DHT22;41554;45.366;20.400;2022-07-29T12:37:39;819.80;1792.00
55673;DHT22;41554;45.366;20.400;2022-07-29T12:40:07;819.80;1766.40
55673;DHT22;41554;45.366;20.400;2022-07-29T12:42:34;819.80;1766.40
55673;DHT22;41554;45.366;20.400;2022-07-29T12:45:00;819.80;1766.40
55673;DHT22;41554;45.366;20.400;2022-07-29T16:50:37;820.00;1484.80
55673;DHT22;41554;45.366;20.400;2022-07-29T16:53:03;820.00;1510.40
55673;DHT22;41554;45.366;20.400;2022-07-29T16:55:29;820.00;1536.00
55673;DHT22;41554;45.366;20.400;2022-07-29T16:57:55;820.00;1536.00
55673;DHT22;41554;45.366;20.400;2022-07-29T17:00:21;819.90;1561.60
55673;DHT22;41554;45.366;20.400;2022-07-29T17:02:47;820.00;1536.00
55673;DHT22;41554;45.366;20.400;2022-07-29T17:05:12;819.80;1536.00
55673;DHT22;41554;45.366;20.400;2022-07-29T17:07:39;819.80;1536.00
55673;DHT22;41554;45.366;20.400;2022-07-29T17:10:06;819.80;1536.00
55673;DHT22;41554;45.366;20.400;2022-07-29T17:12:36;819.80;1536.00
55673;DHT22;41554;45.366;20.400;2022-07-29T17:15:04;819.80;1536.00
55673;DHT22;41554;45.366;20.400;2022-07-29T17:17:30;819.80;1536.00
55673;DHT22;41554;45.366;20.400;2022-07-29T17:19:56;819.70;1536.00
55673;DHT22;41554;45.366;20.400;2022-07-29T17:22:22;819.70;1561.60
55673;DHT22;41554;45.366;20.400;2022-07-29T17:24:47;819.50;1561.60
55673;DHT22;41554;45.366;20.400;2022-07-29T17:27:14;819.60;1587.20
55673;DHT22;41554;45.366;20.400;2022-07-29T17:29:40;819.50;1587.20
55673;DHT22;41554;45.366;20.400;2022-07-29T17:32:07;819.50;1612.80
55673;DHT22;41554;45.366;20.400;2022-07-29T17:34:34;819.50;1612.80
55673;DHT22;41554;45.366;20.400;2022-07-29T17:36:59;819.40;1612.80
55673;DHT22;41554;45.366;20.400;2022-07-29T17:39:25;819.30;1612.80
55673;DHT22;41554;45.366;20.400;2022-07-29T17:41:51;819.30;1638.40
55673;DHT22;41554;45.366;20.400;2022-07-29T17:44:16;819.30;1638.40
55673;DHT22;41554;45.366;20.400;2022-07-29T17:46:42;794.50;1689.60
55673;DHT22;41554;45.366;20.400;2022-07-29T17:49:08;819.20;1664.00
55673;DHT22;41554;45.366;20.400;2022-07-29T17:51:34;794.50;1664.00
55673;DHT22;41554;45.366;20.400;2022-07-29T17:53:59;794.50;1664.00
55673;DHT22;41554;45.366;20.400;2022-07-29T17:56:25;794.50;1689.60
55673;DHT22;41554;45.366;20.400;2022-07-29T17:58:51;794.40;1689.60
55673;DHT22;41554;45.366;20.400;2022-07-29T18:01:17;794.40;1715.20
55673;DHT22;41554;45.366;20.400;2022-07-29T18:03:43;794.20;1740.80
55673;DHT22;41554;45.366;20.400;2022-07-29T18:06:09;794.20;1766.40
55673;DHT22;41554;45.366;20.400;2022-07-29T18:35:30;768.20;1792.00
55673;DHT22;41554;45.366;20.400;2022-07-29T18:37:56;768.10;1792.00
55673;DHT22;41554;45.366;20.400;2022-07-29T18:40:22;743.30;1817.60
55673;DHT22;41554;45.366;20.400;2022-07-29T21:09:19;666.50;2278.40
55673;DHT22;41554;45.366;20.400;2022-07-29T21:11:45;666.30;2329.60
55673;DHT22;41554;45.366;20.400;2022-07-29T21:14:12;666.40;2304.00
55673;DHT22;41554;45.366;20.400;2022-07-29T21:17:00;666.20;2329.60
55673;DHT22;41554;45.366;20.400;2022-07-29T21:19:26;666.10;2380.80
